sensor_id;sensor_type;location;lat;lon;timestamp;pressure;altitude;pressure_sealevel;temperature;humidity
67052;BME280;53957;47.222;18.670;2023-02-23T05:24:24;100244.63;;;4.68;100.00
67052;BME280;53957;47.222;18.670;2023-02-23T05:27:49;100238.00;;;4.88;100.00
67052;BME280;53957;47.222;18.670;2023-02-23T05:30:54;100237.47;;;4.86;100.00
67052;BME280;53957;47.222;18.670;2023-02-23T05:33:59;100244.44;;;4.75;100.00
67052;BME280;53957;47.222;18.670;2023-02-23T05:37:02;100245.38;;;4.86;100.00
67052;BME280;53957;47.222;18.670;2023-02-23T05:40:10;100249.00;;;4.79;100.00
67052;BME280;53957;47.222;18.670;2023-02-23T05:43:33;100253.66;;;4.72;100.00
67052;BME280;53957;47.222;18.670;2023-02-23T05:46:40;100257.41;;;4.76;100.00
67052;BME280;53957;47.222;18.670;2023-02-23T05:49:45;100265.09;;;4.78;100.00
67052;BME280;53957;47.222;18.670;2023-02-23T05:53:08;100261.25;;;4.86;100.00
67052;BME280;53957;47.222;18.670;2023-02-23T05:56:32;100261.72;;;4.82;100.00
67052;BME280;53957;47.222;18.670;2023-02-23T05:59:36;100268.59;;;4.83;100.00
67052;BME280;53957;47.222;18.670;2023-02-23T06:02:41;100261.56;;;4.72;100.00
67052;BME280;53957;47.222;18.670;2023-02-23T06:05:52;100269.25;;;4.74;100.00
67052;BME280;53957;47.222;18.670;2023-02-23T06:08:55;100272.16;;;4.72;100.00
67052;BME280;53957;47.222;18.670;2023-02-23T06:12:07;100274.84;;;4.94;100.00
67052;BME280;53957;47.222;18.670;2023-02-23T06:15:30;100282.94;;;5.27;100.00
67052;BME280;53957;47.222;18.670;2023-02-23T06:18:33;100282.31;;;5.20;100.00
67052;BME280;53957;47.222;18.670;2023-02-23T06:21:56;100284.72;;;5.21;100.00
67052;BME280;53957;47.222;18.670;2023-02-23T16:40:11;100181.78;;;8.59;100.00
67052;BME280;53957;47.222;18.670;2023-02-23T16:43:17;100175.94;;;8.42;100.00
67052;BME280;53957;47.222;18.670;2023-02-23T16:46:23;100180.22;;;8.37;100.00
67052;BME280;53957;47.222;18.670;2023-02-23T16:49:29;100178.88;;;8.35;100.00
67052;BME280;53957;47.222;18.670;2023-02-23T16:52:32;100182.34;;;8.25;100.00
67052;BME280;53957;47.222;18.670;2023-02-23T16:55:41;100181.56;;;8.30;100.00
67052;BME280;53957;47.222;18.670;2023-02-23T16:58:48;100186.88;;;7.73;100.00
67052;BME280;53957;47.222;18.670;2023-02-23T17:02:35;100184.72;;;7.54;100.00
67052;BME280;53957;47.222;18.670;2023-02-23T17:05:42;100187.38;;;7.60;100.00
67052;BME280;53957;47.222;18.670;2023-02-23T17:09:05;100189.81;;;8.13;100.00
67052;BME280;53957;47.222;18.670;2023-02-23T17:12:28;100190.88;;;8.01;100.00
67052;BME280;53957;47.222;18.670;2023-02-23T17:16:04;100192.19;;;7.94;100.00
67052;BME280;53957;47.222;18.670;2023-02-23T17:19:28;100194.03;;;8.09;100.00
67052;BME280;53957;47.222;18.670;2023-02-23T17:23:11;100186.34;;;7.76;100.00
67052;BME280;53957;47.222;18.670;2023-02-23T17:26:55;100179.66;;;7.37;100.00
67052;BME280;53957;47.222;18.670;2023-02-23T17:30:22;100186.50;;;7.23;100.00
67052;BME280;53957;47.222;18.670;2023-02-23T17:34:05;100182.25;;;7.22;100.00
67052;BME280;53957;47.222;18.670;2023-02-23T17:37:11;100173.22;;;7.23;100.00
67052;BME280;53957;47.222;18.670;2023-02-23T17:40:22;100173.56;;;7.42;100.00
67052;BME280;53957;47.222;18.670;2023-02-23T17:43:35;100164.44;;;7.17;100.00
67052;BME280;53957;47.222;18.670;2023-02-23T17:46:39;100180.06;;;7.03;100.00
67052;BME280;53957;47.222;18.670;2023-02-23T17:49:42;100182.22;;;7.06;100.00
67052;BME280;53957;47.222;18.670;2023-02-23T17:52:48;100186.97;;;7.09;100.00
67052;BME280;53957;47.222;18.670;2023-02-23T17:55:52;100171.63;;;7.17;100.00
67052;BME280;53957;47.222;18.670;2023-02-23T17:58:56;100172.19;;;7.34;100.00
67052;BME280;53957;47.222;18.670;2023-02-23T18:02:13;100176.50;;;7.66;100.00
67052;BME280;53957;47.222;18.670;2023-02-23T18:05:17;100175.72;;;7.76;100.00
67052;BME280;53957;47.222;18.670;2023-02-23T18:08:20;100171.19;;;7.51;100.00
67052;BME280;53957;47.222;18.670;2023-02-23T18:11:23;100174.38;;;7.79;100.00
67052;BME280;53957;47.222;18.670;2023-02-23T18:14:31;100167.50;;;7.83;100.00
67052;BME280;53957;47.222;18.670;2023-02-23T18:17:59;100167.75;;;7.81;100.00
67052;BME280;53957;47.222;18.670;2023-02-23T18:21:22;100166.69;;;7.77;100.00
67052;BME280;53957;47.222;18.670;2023-02-23T18:25:28;100164.81;;;7.72;100.00
67052;BME280;53957;47.222;18.670;2023-02-23T21:53:54;100088.09;;;7.30;100.00
67052;BME280;53957;47.222;18.670;2023-02-23T21:56:58;100079.31;;;7.29;100.00
67052;BME280;53957;47.222;18.670;2023-02-23T22:00:01;100083.03;;;7.23;100.00
67052;BME280;53957;47.222;18.670;2023-02-23T22:03:15;100074.03;;;7.14;100.00
67052;BME280;53957;47.222;18.670;2023-02-23T22:06:22;100069.78;;;7.28;100.00
67052;BME280;53957;47.222;18.670;2023-02-23T22:09:26;100071.37;;;7.24;100.00
67052;BME280;53957;47.222;18.670;2023-02-23T22:12:34;100065.00;;;7.20;100.00
67052;BME280;53957;47.222;18.670;2023-02-23T22:15:37;100065.53;;;7.22;100.00
67052;BME280;53957;47.222;18.670;2023-02-23T22:18:42;100067.37;;;7.21;100.00
67052;BME280;53957;47.222;18.670;2023-02-23T22:21:47;100066.84;;;7.19;100.00
67052;BME280;53957;47.222;18.670;2023-02-23T22:24:50;100059.94;;;7.18;100.00
67052;BME280;53957;47.222;18.670;2023-02-23T22:27:54;100052.53;;;7.15;100.00
67052;BME280;53957;47.222;18.670;2023-02-23T22:31:01;100047.22;;;7.10;100.00
67052;BME280;53957;47.222;18.670;2023-02-23T22:34:06;100052.78;;;7.08;100.00
67052;BME280;53957;47.222;18.670;2023-02-23T22:37:20;100050.13;;;7.08;100.00
67052;BME280;53957;47.222;18.670;2023-02-23T22:40:33;100047.72;;;7.07;100.00
67052;BME280;53957;47.222;18.670;2023-02-23T22:43:43;100040.59;;;7.13;100.00
67052;BME280;53957;47.222;18.670;2023-02-23T22:46:49;100040.84;;;7.06;100.00
67052;BME280;53957;47.222;18.670;2023-02-23T22:49:54;100038.94;;;6.91;100.00
67052;BME280;53957;47.222;18.670;2023-02-23T22:52:57;100043.47;;;7.01;100.00
67052;BME280;53957;47.222;18.670;2023-02-23T22:56:01;100037.91;;;6.97;100.00
67052;BME280;53957;47.222;18.670;2023-02-23T22:59:04;100032.06;;;6.90;100.00
67052;BME280;53957;47.222;18.670;2023-02-23T23:02:08;100028.34;;;6.86;100.00
67052;BME280;53957;47.222;18.670;2023-02-23T23:05:15;100023.59;;;6.93;100.00
67052;BME280;53957;47.222;18.670;2023-02-23T23:08:19;100032.31;;;6.93;100.00
67052;BME280;53957;47.222;18.670;2023-02-23T23:11:24;100022.28;;;7.16;100.00
67052;BME280;53957;47.222;18.670;2023-02-23T23:14:29;100027.06;;;7.09;100.00
67052;BME280;53957;47.222;18.670;2023-02-23T23:17:34;100009.28;;;7.15;100.00
67052;BME280;53957;47.222;18.670;2023-02-23T23:20:39;100015.66;;;7.14;100.00
67052;BME280;53957;47.222;18.670;2023-02-23T23:23:45;100018.31;;;7.19;100.00
67052;BME280;53957;47.222;18.670;2023-02-23T23:26:53;100021.47;;;7.21;100.00
67052;BME280;53957;47.222;18.670;2023-02-23T23:29:57;100018.56;;;7.12;100.00
67052;BME280;53957;47.222;18.670;2023-02-23T23:33:00;100019.38;;;7.13;100.00
67052;BME280;53957;47.222;18.670;2023-02-23T23:36:06;100024.41;;;7.09;100.00
67052;BME280;53957;47.222;18.670;2023-02-23T23:39:14;100022.53;;;6.99;100.00
67052;BME280;53957;47.222;18.670;2023-02-23T23:42:18;100020.41;;;6.96;100.00
67052;BME280;53957;47.222;18.670;2023-02-23T23:45:24;100007.94;;;7.12;100.00
67052;BME280;53957;47.222;18.670;2023-02-23T23:48:27;100005.56;;;7.00;100.00
67052;BME280;53957;47.222;18.670;2023-02-23T23:51:35;100004.22;;;6.92;100.00
67052;BME280;53957;47.222;18.670;2023-02-23T23:54:40;100002.63;;;6.86;100.00
67052;BME280;53957;47.222;18.670;2023-02-23T23:57:45;100005.53;;;6.90;100.00
